Time;durP1;ratioP1;P1;durP2;ratioP2;P2;SDS_P1;SDS_P2;PMS_P1;PMS_P2;Temp;Humidity;BMP_temperature;BMP_pressure;BME280_temperature;BME280_humidity;BME280_pressure;Samples;Min_cycle;Max_cycle;Signal;HPM_P1;HPM_P2
2022/06/18 00:01:33;;;;;;;3.60;3.13;;;;;;;;;;5057981;28;20033;-57
2022/06/18 00:04:09;;;;;;;3.47;3.05;;;;;;;;;;5055404;28;20497;-58
2022/06/18 00:06:40;;;;;;;3.85;3.20;;;;;;;;;;5062579;28;20020;-57
2022/06/18 00:09:06;;;;;;;3.35;3.05;;;;;;;;;;5059646;28;20024;-57
2022/06/18 00:14:17;;;;;;;5.78;3.63;;;;;;;;;;5064064;28;20449;-57
2022/06/18 00:16:42;;;;;;;4.75;3.65;;;;;;;;;;5069941;28;20108;-57
2022/06/18 00:19:08;;;;;;;5.18;3.60;;;;;;;;;;5070722;28;20024;-57
2022/06/18 00:21:33;;;;;;;3.40;2.92;;;;;;;;;;5071439;28;20039;-57
2022/06/18 00:23:59;;;;;;;5.82;3.30;;;;;;;;;;5070218;28;20024;-57
2022/06/18 00:26:24;;;;;;;6.18;3.33;;;;;;;;;;5069066;28;20055;-57
2022/06/18 00:28:50;;;;;;;5.35;3.50;;;;;;;;;;5064137;28;20039;-58
2022/06/18 00:31:15;;;;;;;6.28;3.80;;;;;;;;;;5072651;28;20037;-57
2022/06/18 00:33:41;;;;;;;5.22;3.55;;;;;;;;;;5071757;28;20025;-57
2022/06/18 00:36:13;;;;;;;5.50;4.00;;;;;;;;;;5068888;28;20025;-57
2022/06/18 00:38:42;;;;;;;6.57;4.20;;;;;;;;;;5069083;28;20024;-57
2022/06/18 00:41:15;;;;;;;6.40;3.90;;;;;;;;;;5072995;28;20030;-57
2022/06/18 00:43:55;;;;;;;5.60;4.00;;;;;;;;;;5065385;28;20056;-58
2022/06/18 00:46:35;;;;;;;5.00;3.95;;;;;;;;;;5065776;28;20021;-57
2022/06/18 00:49:21;;;;;;;5.28;3.80;;;;;;;;;;5071770;28;20492;-57
2022/06/18 00:51:55;;;;;;;7.70;4.22;;;;;;;;;;5030902;28;1111603;-58
2022/06/18 00:54:24;;;;;;;6.03;3.80;;;;;;;;;;5065716;28;20040;-57
2022/06/18 00:56:59;;;;;;;6.35;4.15;;;;;;;;;;5073652;28;20108;-57
2022/06/18 00:59:34;;;;;;;4.50;4.10;;;;;;;;;;5063662;28;20028;-57
2022/06/18 01:02:01;;;;;;;4.18;3.53;;;;;;;;;;5058662;28;20108;-57
2022/06/18 01:04:32;;;;;;;4.18;3.65;;;;;;;;;;5060998;28;20025;-57
2022/06/18 01:07:36;;;;;;;4.43;3.83;;;;;;;;;;5063197;28;20067;-57
2022/06/18 01:10:12;;;;;;;9.60;3.67;;;;;;;;;;5060249;28;20025;-57
2022/06/18 01:12:37;;;;;;;4.60;3.67;;;;;;;;;;5065666;28;20139;-57
2022/06/18 01:15:07;;;;;;;5.07;4.10;;;;;;;;;;5069122;28;20551;-57
2022/06/18 01:17:35;;;;;;;7.60;4.10;;;;;;;;;;5069942;28;20016;-58
2022/06/18 01:20:04;;;;;;;5.18;3.60;;;;;;;;;;5070344;28;20112;-57
2022/06/18 01:22:52;;;;;;;4.50;3.60;;;;;;;;;;5067081;28;20111;-57
2022/06/18 01:25:18;;;;;;;4.57;3.72;;;;;;;;;;5069622;28;20052;-56
2022/06/18 01:27:44;;;;;;;5.57;3.95;;;;;;;;;;5069075;28;20485;-57
2022/06/18 01:30:16;;;;;;;9.63;3.95;;;;;;;;;;5072585;28;20032;-58
2022/06/18 01:32:43;;;;;;;7.30;3.78;;;;;;;;;;5070980;28;20269;-56
2022/06/18 01:35:10;;;;;;;5.72;3.75;;;;;;;;;;5067054;28;20375;-57
2022/06/18 01:37:35;;;;;;;4.57;3.90;;;;;;;;;;5068260;28;20373;-58
2022/06/18 01:40:02;;;;;;;5.63;4.05;;;;;;;;;;5073448;28;20027;-57
2022/06/18 01:42:42;;;;;;;4.15;3.70;;;;;;;;;;5074542;28;20028;-57
2022/06/18 01:45:21;;;;;;;5.57;4.47;;;;;;;;;;5070125;28;20134;-57
2022/06/18 01:47:58;;;;;;;4.63;4.03;;;;;;;;;;5074978;28;20553;-57
2022/06/18 01:50:35;;;;;;;4.57;4.05;;;;;;;;;;5076773;28;20092;-57
2022/06/18 01:53:09;;;;;;;5.07;4.00;;;;;;;;;;5070960;28;20058;-57
2022/06/18 01:55:43;;;;;;;5.45;3.92;;;;;;;;;;5062749;28;20100;-57
2022/06/18 01:58:22;;;;;;;4.80;4.20;;;;;;;;;;5065338;28;20036;-57
2022/06/18 02:00:52;;;;;;;7.65;3.88;;;;;;;;;;5062712;28;20032;-57
2022/06/18 02:03:17;;;;;;;4.85;4.30;;;;;;;;;;5066217;28;20056;-57
2022/06/18 02:05:43;;;;;;;4.20;3.80;;;;;;;;;;5064361;28;20051;-57
2022/06/18 02:08:11;;;;;;;4.97;4.07;;;;;;;;;;5065995;28;20078;-58
2022/06/18 02:10:42;;;;;;;5.78;4.15;;;;;;;;;;5064807;28;20028;-57
2022/06/18 02:13:08;;;;;;;6.15;3.92;;;;;;;;;;5069436;28;20368;-57
2022/06/18 02:15:39;;;;;;;5.95;4.03;;;;;;;;;;5070805;28;20031;-57
2022/06/18 02:18:07;;;;;;;4.40;4.00;;;;;;;;;;5073401;28;20025;-56
2022/06/18 02:20:42;;;;;;;4.20;3.80;;;;;;;;;;5071459;28;20116;-56
2022/06/18 02:23:07;;;;;;;4.38;3.88;;;;;;;;;;5072827;28;20376;-57
2022/06/18 02:25:33;;;;;;;4.93;4.05;;;;;;;;;;5070803;28;20072;-57
2022/06/18 02:28:29;;;;;;;4.75;4.30;;;;;;;;;;5075229;28;20028;-57
2022/06/18 02:30:59;;;;;;;5.15;4.07;;;;;;;;;;5071182;28;20037;-57
2022/06/18 02:33:25;;;;;;;4.95;4.10;;;;;;;;;;5076526;28;20032;-59
2022/06/18 02:35:51;;;;;;;8.40;3.90;;;;;;;;;;5071024;28;20103;-57
2022/06/18 02:38:20;;;;;;;5.68;4.15;;;;;;;;;;5068899;28;20028;-57
2022/06/18 02:40:45;;;;;;;4.63;4.22;;;;;;;;;;5071942;28;20407;-56
2022/06/18 02:43:13;;;;;;;5.72;4.20;;;;;;;;;;5076245;28;20024;-57
2022/06/18 02:45:39;;;;;;;6.47;4.53;;;;;;;;;;5074201;28;20056;-57
2022/06/18 02:48:08;;;;;;;7.63;4.13;;;;;;;;;;5070532;28;20020;-57
2022/06/18 02:50:36;;;;;;;4.70;3.97;;;;;;;;;;5070163;28;20028;-57
2022/06/18 02:53:04;;;;;;;5.93;4.25;;;;;;;;;;5077791;28;20527;-57
2022/06/18 02:55:33;;;;;;;4.32;3.92;;;;;;;;;;5075138;28;20039;-57
2022/06/18 02:58:12;;;;;;;5.72;4.38;;;;;;;;;;5061609;28;20040;-57
2022/06/18 03:00:41;;;;;;;7.05;4.22;;;;;;;;;;5063581;28;20070;-58
2022/06/18 03:03:10;;;;;;;7.00;4.40;;;;;;;;;;5064905;28;20028;-57
2022/06/18 03:05:36;;;;;;;5.05;4.40;;;;;;;;;;5063769;28;20029;-57
2022/06/18 03:08:02;;;;;;;6.78;4.32;;;;;;;;;;5060977;28;20056;-57
2022/06/18 03:13:11;;;;;;;5.07;4.57;;;;;;;;;;5072773;28;20035;-56
2022/06/18 03:15:37;;;;;;;6.55;4.38;;;;;;;;;;5069178;28;20028;-57
2022/06/18 03:18:03;;;;;;;5.93;4.45;;;;;;;;;;5069793;28;20490;-56
2022/06/18 03:20:45;;;;;;;8.13;4.80;;;;;;;;;;5074581;28;20027;-56
2022/06/18 03:23:15;;;;;;;7.75;4.65;;;;;;;;;;5072685;28;20514;-57
2022/06/18 03:25:41;;;;;;;6.20;4.97;;;;;;;;;;5070354;28;20064;-57
2022/06/18 03:28:07;;;;;;;4.90;4.40;;;;;;;;;;5073814;28;20048;-57
2022/06/18 03:30:32;;;;;;;6.63;4.50;;;;;;;;;;5073889;28;20107;-57
2022/06/18 03:32:58;;;;;;;8.50;4.43;;;;;;;;;;5071590;28;20412;-57
2022/06/18 03:35:23;;;;;;;6.15;4.75;;;;;;;;;;5067939;28;20032;-57
2022/06/18 03:37:48;;;;;;;5.32;4.40;;;;;;;;;;5068507;28;20039;-56
2022/06/18 03:40:14;;;;;;;5.03;4.32;;;;;;;;;;5078564;28;20399;-57
2022/06/18 03:42:41;;;;;;;6.50;4.75;;;;;;;;;;5072366;28;20274;-57
2022/06/18 03:45:07;;;;;;;6.57;4.68;;;;;;;;;;5069029;28;20402;-57
2022/06/18 03:47:34;;;;;;;7.10;4.40;;;;;;;;;;5067706;28;20031;-57
2022/06/18 03:49:59;;;;;;;8.93;4.40;;;;;;;;;;5060855;28;20309;-56
2022/06/18 03:52:25;;;;;;;5.70;4.50;;;;;;;;;;5073250;28;20032;-57
2022/06/18 03:54:50;;;;;;;4.80;3.95;;;;;;;;;;5069610;28;20032;-57
2022/06/18 03:57:18;;;;;;;6.00;4.10;;;;;;;;;;5059581;28;20040;-57
2022/06/18 03:59:43;;;;;;;6.38;4.68;;;;;;;;;;5063547;28;20069;-56
2022/06/18 04:02:09;;;;;;;5.10;4.35;;;;;;;;;;5063046;28;20032;-57
2022/06/18 04:04:35;;;;;;;4.85;4.32;;;;;;;;;;5064628;28;20123;-57
2022/06/18 04:07:00;;;;;;;7.82;4.70;;;;;;;;;;5059052;28;20066;-57
2022/06/18 04:09:26;;;;;;;8.68;4.55;;;;;;;;;;5061672;28;20025;-57
2022/06/18 04:11:51;;;;;;;7.25;4.65;;;;;;;;;;5070640;28;20024;-57
2022/06/18 04:14:17;;;;;;;7.55;4.75;;;;;;;;;;5071092;28;20384;-57
2022/06/18 04:16:42;;;;;;;5.88;4.57;;;;;;;;;;5069797;28;20443;-57
2022/06/18 04:19:10;;;;;;;5.43;4.18;;;;;;;;;;5072050;28;20020;-57
2022/06/18 04:21:35;;;;;;;6.47;4.43;;;;;;;;;;5070950;28;20028;-58
2022/06/18 04:24:01;;;;;;;6.63;4.70;;;;;;;;;;5070729;28;20321;-57
2022/06/18 04:26:27;;;;;;;5.22;4.72;;;;;;;;;;5068544;28;20021;-57
2022/06/18 04:28:52;;;;;;;5.38;4.55;;;;;;;;;;5070967;28;20032;-58
2022/06/18 04:31:18;;;;;;;6.13;4.45;;;;;;;;;;5073714;28;20444;-57
2022/06/18 04:33:44;;;;;;;5.57;4.40;;;;;;;;;;5071505;28;20032;-57
2022/06/18 04:36:29;;;;;;;5.97;4.32;;;;;;;;;;5067926;28;20024;-57
2022/06/18 04:38:55;;;;;;;5.55;4.85;;;;;;;;;;5070756;28;20085;-57
2022/06/18 04:41:20;;;;;;;5.07;4.30;;;;;;;;;;5073778;28;20025;-57
2022/06/18 04:43:45;;;;;;;8.95;4.50;;;;;;;;;;5071030;28;20055;-57
2022/06/18 04:46:11;;;;;;;6.88;4.28;;;;;;;;;;5067218;28;20020;-56
2022/06/18 04:48:36;;;;;;;8.52;4.70;;;;;;;;;;5069427;28;20024;-57
2022/06/18 04:51:02;;;;;;;7.78;4.90;;;;;;;;;;5070216;28;20124;-56
2022/06/18 04:53:27;;;;;;;6.30;4.85;;;;;;;;;;5073002;28;20032;-56
2022/06/18 04:55:53;;;;;;;7.60;4.18;;;;;;;;;;5068198;28;20468;-57
2022/06/18 04:58:18;;;;;;;5.80;4.57;;;;;;;;;;5060629;28;20027;-56
2022/06/18 05:00:44;;;;;;;5.53;4.55;;;;;;;;;;5062619;28;20023;-57
2022/06/18 05:03:16;;;;;;;5.35;4.30;;;;;;;;;;5063667;28;20025;-57
2022/06/18 05:05:41;;;;;;;8.80;4.68;;;;;;;;;;5062643;28;20043;-57
2022/06/18 05:08:07;;;;;;;7.00;5.03;;;;;;;;;;5060389;28;20036;-58
2022/06/18 05:10:32;;;;;;;5.38;4.65;;;;;;;;;;5071810;28;20025;-57
2022/06/18 05:12:58;;;;;;;5.78;5.18;;;;;;;;;;5070201;28;20027;-57
2022/06/18 05:15:24;;;;;;;6.45;4.75;;;;;;;;;;5070852;28;20024;-57
2022/06/18 05:17:50;;;;;;;9.38;4.88;;;;;;;;;;5074310;28;20012;-56
2022/06/18 05:20:19;;;;;;;5.70;4.57;;;;;;;;;;5075244;28;20087;-59
2022/06/18 05:22:44;;;;;;;6.00;5.00;;;;;;;;;;5074334;28;20020;-57
2022/06/18 05:25:11;;;;;;;5.35;4.75;;;;;;;;;;5073748;28;20021;-57
2022/06/18 05:27:37;;;;;;;7.30;5.63;;;;;;;;;;5072038;28;20033;-57
2022/06/18 05:30:06;;;;;;;7.40;5.43;;;;;;;;;;5075608;28;20483;-57
2022/06/18 05:32:31;;;;;;;7.22;5.53;;;;;;;;;;5075898;28;20031;-57
2022/06/18 05:34:56;;;;;;;6.65;5.10;;;;;;;;;;5075643;28;20021;-56
2022/06/18 05:37:28;;;;;;;7.40;5.25;;;;;;;;;;5070376;28;20047;-57
2022/06/18 05:39:54;;;;;;;5.97;5.28;;;;;;;;;;5074566;28;20024;-58
2022/06/18 05:42:21;;;;;;;7.97;5.20;;;;;;;;;;5076968;28;20031;-56
2022/06/18 05:44:47;;;;;;;5.88;5.25;;;;;;;;;;5073906;28;20020;-57
2022/06/18 05:47:15;;;;;;;7.38;4.68;;;;;;;;;;5065366;28;20032;-57
2022/06/18 05:49:40;;;;;;;6.50;4.85;;;;;;;;;;5067303;28;20033;-56
2022/06/18 05:52:07;;;;;;;6.18;5.40;;;;;;;;;;5075777;28;20578;-58
2022/06/18 05:54:33;;;;;;;6.82;5.63;;;;;;;;;;5075460;28;20099;-57
2022/06/18 05:56:59;;;;;;;7.30;5.40;;;;;;;;;;5062391;28;20112;-57
2022/06/18 05:59:24;;;;;;;7.60;5.18;;;;;;;;;;5062727;28;20024;-57
2022/06/18 06:01:50;;;;;;;7.90;5.25;;;;;;;;;;5057223;28;20439;-57
2022/06/18 06:04:17;;;;;;;5.97;5.00;;;;;;;;;;5069561;28;20078;-56
2022/06/18 06:06:42;;;;;;;6.47;5.72;;;;;;;;;;5064032;28;20387;-57
2022/06/18 06:11:28;;;;;;;8.23;5.55;;;;;;;;;;5069454;28;20021;-57
2022/06/18 06:11:58;;;;;;;7.65;6.03;;;;;;;;;;5066053;28;20115;-57
2022/06/18 06:14:24;;;;;;;7.57;5.45;;;;;;;;;;5072108;28;20141;-57
2022/06/18 06:16:50;;;;;;;10.82;5.43;;;;;;;;;;5072939;28;20017;-57
2022/06/18 06:19:15;;;;;;;8.40;5.75;;;;;;;;;;5074346;28;20036;-57
2022/06/18 06:21:40;;;;;;;8.73;5.03;;;;;;;;;;5073334;28;20024;-57
2022/06/18 06:24:06;;;;;;;8.43;5.30;;;;;;;;;;5072760;28;20032;-57
2022/06/18 06:26:33;;;;;;;7.50;5.15;;;;;;;;;;5070380;28;20393;-57
2022/06/18 06:29:00;;;;;;;5.70;5.10;;;;;;;;;;5074356;28;20541;-57
2022/06/18 06:31:26;;;;;;;8.05;4.85;;;;;;;;;;5075537;28;20077;-57
2022/06/18 06:33:51;;;;;;;8.80;5.65;;;;;;;;;;5069366;28;20036;-57
2022/06/18 06:36:17;;;;;;;7.80;5.13;;;;;;;;;;5069319;28;20060;-57
2022/06/18 06:38:43;;;;;;;5.57;4.72;;;;;;;;;;5072251;28;20055;-57
2022/06/18 06:41:28;;;;;;;5.65;5.03;;;;;;;;;;5075787;28;20047;-56
2022/06/18 06:43:54;;;;;;;8.68;4.72;;;;;;;;;;5068865;28;20166;-57
2022/06/18 06:46:19;;;;;;;5.95;5.00;;;;;;;;;;5069647;28;20108;-57
2022/06/18 06:48:45;;;;;;;7.40;5.00;;;;;;;;;;5072969;28;20497;-57
2022/06/18 06:51:28;;;;;;;8.77;5.05;;;;;;;;;;5074853;28;20038;-58
2022/06/18 06:53:54;;;;;;;5.82;4.80;;;;;;;;;;5070090;28;20611;-56
2022/06/18 06:59:06;;;;;;;8.55;5.18;;;;;;;;;;5059526;28;20517;-57
2022/06/18 07:01:34;;;;;;;5.55;5.05;;;;;;;;;;5063295;28;20400;-57
2022/06/18 07:04:00;;;;;;;6.03;4.75;;;;;;;;;;5061720;28;20033;-57
2022/06/18 07:06:25;;;;;;;7.97;5.00;;;;;;;;;;5071754;28;20391;-57
2022/06/18 07:08:51;;;;;;;7.15;5.25;;;;;;;;;;5072553;28;20025;-57
2022/06/18 07:11:17;;;;;;;9.13;7.00;;;;;;;;;;5071978;28;20036;-57
2022/06/18 07:13:43;;;;;;;6.45;5.68;;;;;;;;;;5069690;28;20442;-58
2022/06/18 07:16:13;;;;;;;7.10;5.60;;;;;;;;;;5072007;28;20020;-58
2022/06/18 07:18:40;;;;;;;7.70;4.88;;;;;;;;;;5073653;28;20586;-57
2022/06/18 07:21:09;;;;;;;7.85;5.20;;;;;;;;;;5071174;28;20120;-57
2022/06/18 07:23:35;;;;;;;8.15;5.70;;;;;;;;;;5070867;28;20020;-58
2022/06/18 07:26:01;;;;;;;6.20;5.43;;;;;;;;;;5072654;28;20072;-57
2022/06/18 07:28:26;;;;;;;8.93;5.22;;;;;;;;;;5073612;28;20028;-57
2022/06/18 07:30:52;;;;;;;7.18;5.40;;;;;;;;;;5067228;28;20032;-57
2022/06/18 07:33:21;;;;;;;7.72;5.13;;;;;;;;;;5069565;28;20032;-56
2022/06/18 07:35:47;;;;;;;6.28;5.10;;;;;;;;;;5073529;28;20422;-56
2022/06/18 07:38:12;;;;;;;11.20;5.93;;;;;;;;;;5075196;28;20135;-56
2022/06/18 07:40:44;;;;;;;7.43;6.15;;;;;;;;;;5073147;28;20020;-56
2022/06/18 07:43:15;;;;;;;9.38;5.38;;;;;;;;;;5064316;28;20134;-57
2022/06/18 07:45:41;;;;;;;8.63;5.70;;;;;;;;;;5071454;28;20028;-56
2022/06/18 07:48:06;;;;;;;7.93;5.10;;;;;;;;;;5075485;28;20399;-55
2022/06/18 07:50:32;;;;;;;11.35;7.20;;;;;;;;;;5073384;28;20040;-56
2022/06/18 07:52:57;;;;;;;8.02;5.88;;;;;;;;;;5060224;28;20025;-56
2022/06/18 07:55:27;;;;;;;6.93;5.57;;;;;;;;;;5060972;28;20108;-56
2022/06/18 07:57:52;;;;;;;7.65;5.10;;;;;;;;;;5056193;28;20036;-56
2022/06/18 08:00:20;;;;;;;10.90;5.53;;;;;;;;;;5064397;28;20020;-56
2022/06/18 08:02:46;;;;;;;9.13;5.43;;;;;;;;;;5061154;28;20063;-56
2022/06/18 08:05:18;;;;;;;7.07;5.70;;;;;;;;;;5060545;28;20306;-56
2022/06/18 08:07:43;;;;;;;6.95;5.30;;;;;;;;;;5071228;28;20059;-56
2022/06/18 08:10:08;;;;;;;7.18;5.40;;;;;;;;;;5068426;28;20025;-57
2022/06/18 08:12:34;;;;;;;10.32;7.47;;;;;;;;;;5066238;28;20028;-56
2022/06/18 08:15:01;;;;;;;13.13;8.02;;;;;;;;;;5068398;28;20396;-57
2022/06/18 08:17:30;;;;;;;6.50;5.82;;;;;;;;;;5069111;28;20028;-57
2022/06/18 08:19:55;;;;;;;6.90;5.68;;;;;;;;;;5068691;28;20501;-56
2022/06/18 08:22:21;;;;;;;7.10;5.88;;;;;;;;;;5067890;28;20059;-56
2022/06/18 08:24:47;;;;;;;12.27;6.07;;;;;;;;;;5069652;28;20078;-57
2022/06/18 08:27:14;;;;;;;11.75;5.75;;;;;;;;;;5075227;28;20068;-57
2022/06/18 08:29:40;;;;;;;8.60;6.13;;;;;;;;;;5070733;28;20047;-56
2022/06/18 08:32:05;;;;;;;10.30;7.20;;;;;;;;;;5069973;28;20020;-57
2022/06/18 08:34:31;;;;;;;10.13;5.82;;;;;;;;;;5064598;28;20087;-56
2022/06/18 08:36:56;;;;;;;7.68;5.28;;;;;;;;;;5070134;28;20044;-57
2022/06/18 08:39:22;;;;;;;6.05;5.45;;;;;;;;;;5070386;28;20136;-57
2022/06/18 08:42:06;;;;;;;8.05;5.70;;;;;;;;;;5068866;28;20365;-58
2022/06/18 08:44:58;;;;;;;6.80;6.10;;;;;;;;;;5069606;28;20021;-56
2022/06/18 08:47:54;;;;;;;8.18;5.80;;;;;;;;;;5075872;28;20103;-56
2022/06/18 08:50:34;;;;;;;6.32;5.68;;;;;;;;;;5070263;28;20033;-56
2022/06/18 08:53:33;;;;;;;7.32;6.03;;;;;;;;;;5067477;28;20044;-55
2022/06/18 08:56:04;;;;;;;6.35;4.97;;;;;;;;;;5064614;28;20056;-56
2022/06/18 08:58:40;;;;;;;7.13;5.22;;;;;;;;;;5067469;28;20028;-57
2022/06/18 09:01:16;;;;;;;6.22;5.07;;;;;;;;;;5070090;28;20081;-56
2022/06/18 09:04:12;;;;;;;7.00;5.53;;;;;;;;;;5065402;28;20539;-56
2022/06/18 09:06:55;;;;;;;9.52;5.85;;;;;;;;;;5072461;28;20458;-57
2022/06/18 09:09:32;;;;;;;11.93;7.35;;;;;;;;;;5070803;28;20107;-57
2022/06/18 09:12:37;;;;;;;9.02;5.90;;;;;;;;;;5066735;28;20028;-58
2022/06/18 09:15:09;;;;;;;6.88;5.57;;;;;;;;;;5064737;28;20044;-56
2022/06/18 09:17:50;;;;;;;6.10;5.47;;;;;;;;;;5072579;28;20029;-56
2022/06/18 09:20:50;;;;;;;9.48;5.85;;;;;;;;;;5076824;28;20024;-57
2022/06/18 09:23:39;;;;;;;8.30;5.57;;;;;;;;;;5054156;28;20086;-56
2022/06/18 09:26:11;;;;;;;8.80;5.72;;;;;;;;;;5072757;28;20499;-56
2022/06/18 09:28:46;;;;;;;7.03;5.60;;;;;;;;;;5074821;28;20040;-55
2022/06/18 09:31:29;;;;;;;7.97;6.20;;;;;;;;;;5067719;28;20432;-56
2022/06/18 09:34:10;;;;;;;8.10;5.93;;;;;;;;;;5067850;28;20537;-56
2022/06/18 09:36:47;;;;;;;8.60;6.20;;;;;;;;;;5066808;28;20020;-56
2022/06/18 09:39:24;;;;;;;7.60;6.00;;;;;;;;;;5065630;28;20029;-58
2022/06/18 09:42:02;;;;;;;8.00;5.63;;;;;;;;;;5079070;28;20372;-57
2022/06/18 09:44:30;;;;;;;6.82;5.90;;;;;;;;;;5073355;28;20460;-56
2022/06/18 09:47:10;;;;;;;7.57;5.68;;;;;;;;;;5077307;28;20072;-58
2022/06/18 09:49:36;;;;;;;8.48;6.13;;;;;;;;;;5064467;28;20067;-56
2022/06/18 09:52:11;;;;;;;6.65;5.65;;;;;;;;;;5064511;28;20027;-58
2022/06/18 09:54:44;;;;;;;8.65;5.93;;;;;;;;;;5067974;28;20024;-57
2022/06/18 09:57:13;;;;;;;7.38;5.53;;;;;;;;;;5063401;28;20025;-57
2022/06/18 09:59:44;;;;;;;7.45;5.97;;;;;;;;;;5067425;28;20558;-58
2022/06/18 10:02:23;;;;;;;9.00;5.78;;;;;;;;;;5065426;28;20124;-57
2022/06/18 10:07:39;;;;;;;9.15;5.97;;;;;;;;;;5071703;28;20460;-58
2022/06/18 10:10:14;;;;;;;9.50;5.80;;;;;;;;;;5073421;28;20056;-58
2022/06/18 10:12:53;;;;;;;6.60;6.00;;;;;;;;;;5071505;28;20435;-58
2022/06/18 10:15:19;;;;;;;7.30;5.90;;;;;;;;;;5075456;28;20037;-57
2022/06/18 10:18:13;;;;;;;8.52;5.90;;;;;;;;;;5073793;28;20036;-57
2022/06/18 10:20:52;;;;;;;7.13;5.60;;;;;;;;;;5070912;28;20013;-57
2022/06/18 10:23:32;;;;;;;9.30;5.30;;;;;;;;;;5076624;28;20024;-57
2022/06/18 10:26:05;;;;;;;6.78;5.90;;;;;;;;;;5075832;28;20100;-57
2022/06/18 10:28:49;;;;;;;7.72;5.22;;;;;;;;;;5070574;28;20028;-58
2022/06/18 10:31:28;;;;;;;9.02;5.95;;;;;;;;;;5066216;28;20036;-57
2022/06/18 10:34:00;;;;;;;6.30;5.50;;;;;;;;;;5075077;28;20024;-58
2022/06/18 10:36:39;;;;;;;7.18;5.18;;;;;;;;;;5069233;28;20119;-59
2022/06/18 10:39:22;;;;;;;7.10;5.43;;;;;;;;;;5064100;28;20078;-58
2022/06/18 10:41:47;;;;;;;9.27;5.78;;;;;;;;;;5072262;28;20020;-57
2022/06/18 10:44:22;;;;;;;6.97;6.07;;;;;;;;;;5069898;28;20025;-58
2022/06/18 10:47:05;;;;;;;7.85;5.65;;;;;;;;;;5079365;28;20028;-57
2022/06/18 10:49:31;;;;;;;9.48;5.95;;;;;;;;;;5075783;28;20150;-58
2022/06/18 10:51:58;;;;;;;12.20;6.05;;;;;;;;;;5060496;28;20037;-58
2022/06/18 10:54:33;;;;;;;8.40;6.10;;;;;;;;;;5062084;28;20029;-58
2022/06/18 10:56:59;;;;;;;7.30;5.97;;;;;;;;;;5065409;28;20131;-57
2022/06/18 10:59:37;;;;;;;7.55;5.70;;;;;;;;;;5065896;28;20112;-58
2022/06/18 11:02:08;;;;;;;9.43;5.68;;;;;;;;;;5061668;28;20025;-58
2022/06/18 11:04:35;;;;;;;7.97;6.05;;;;;;;;;;5069815;28;20530;-58
2022/06/18 11:07:06;;;;;;;7.25;5.55;;;;;;;;;;5072070;28;20062;-58
2022/06/18 11:09:32;;;;;;;8.95;6.00;;;;;;;;;;5069852;28;20023;-58
2022/06/18 11:12:06;;;;;;;6.55;5.95;;;;;;;;;;5071077;28;20044;-58
2022/06/18 11:14:43;;;;;;;10.82;6.07;;;;;;;;;;5068985;28;20183;-58
2022/06/18 11:17:26;;;;;;;10.98;5.95;;;;;;;;;;5072743;28;20029;-59
2022/06/18 11:19:51;;;;;;;6.35;5.70;;;;;;;;;;5063774;28;20507;-58
2022/06/18 11:22:27;;;;;;;9.40;5.72;;;;;;;;;;5070066;28;20067;-59
2022/06/18 11:24:55;;;;;;;6.72;5.88;;;;;;;;;;5066667;28;20487;-58
2022/06/18 11:27:22;;;;;;;8.20;5.60;;;;;;;;;;5069163;28;20037;-59
2022/06/18 11:29:51;;;;;;;11.90;5.45;;;;;;;;;;5072063;28;20044;-58
2022/06/18 11:32:32;;;;;;;7.03;5.55;;;;;;;;;;5074567;28;20088;-58
2022/06/18 11:35:26;;;;;;;6.20;5.18;;;;;;;;;;5072217;28;20463;-59
2022/06/18 11:38:04;;;;;;;8.45;5.28;;;;;;;;;;5072396;28;20055;-58
2022/06/18 11:40:30;;;;;;;7.07;5.38;;;;;;;;;;5076022;28;20111;-58
2022/06/18 11:43:04;;;;;;;9.57;5.00;;;;;;;;;;5065504;28;20533;-58
2022/06/18 11:45:35;;;;;;;8.23;5.40;;;;;;;;;;5066044;28;20028;-58
2022/06/18 11:48:22;;;;;;;9.40;5.50;;;;;;;;;;5070274;28;20050;-58
2022/06/18 11:51:10;;;;;;;12.30;5.35;;;;;;;;;;5064670;28;20052;-58
2022/06/18 11:53:45;;;;;;;;;;;;;;;;;;5065192;28;20090;-58
2022/06/18 11:57:03;;;;;;;14.13;5.38;;;;;;;;;;5058576;28;19916;-58
2022/06/18 11:59:46;;;;;;;10.77;5.97;;;;;;;;;;5048138;28;20064;-58
2022/06/18 12:02:31;;;;;;;8.77;5.78;;;;;;;;;;5064250;28;20025;-58
2022/06/18 12:05:05;;;;;;;13.60;5.90;;;;;;;;;;5065117;28;20040;-58
2022/06/18 12:07:35;;;;;;;8.52;5.40;;;;;;;;;;5070289;28;20021;-58
2022/06/18 12:10:01;;;;;;;13.25;5.53;;;;;;;;;;5068034;28;20037;-59
2022/06/18 12:12:51;;;;;;;15.10;5.95;;;;;;;;;;5065487;28;20511;-58
2022/06/18 12:15:47;;;;;;;10.50;5.65;;;;;;;;;;5071989;28;20039;-58
2022/06/18 12:18:15;;;;;;;13.50;5.80;;;;;;;;;;5066524;28;20048;-59
2022/06/18 12:21:03;;;;;;;16.73;5.72;;;;;;;;;;5068630;28;20330;-59
2022/06/18 12:23:52;;;;;;;13.32;5.28;;;;;;;;;;5061481;28;20392;-58
2022/06/18 12:26:32;;;;;;;13.90;5.55;;;;;;;;;;5064816;28;20040;-58
2022/06/18 12:29:03;;;;;;;13.48;5.43;;;;;;;;;;5068099;28;20322;-58
2022/06/18 12:31:53;;;;;;;8.32;5.30;;;;;;;;;;5075193;28;20035;-58
2022/06/18 12:34:37;;;;;;;10.63;5.65;;;;;;;;;;5067405;28;20033;-58
2022/06/18 12:37:23;;;;;;;11.52;5.40;;;;;;;;;;5065132;28;20043;-58
2022/06/18 12:40:09;;;;;;;14.18;5.75;;;;;;;;;;5075733;28;20028;-58
2022/06/18 12:42:37;;;;;;;12.80;5.88;;;;;;;;;;5067567;28;20056;-59
2022/06/18 12:45:31;;;;;;;14.73;5.43;;;;;;;;;;5070307;28;20029;-59
2022/06/18 12:48:22;;;;;;;8.77;5.40;;;;;;;;;;5061767;28;20032;-59
2022/06/18 12:51:04;;;;;;;12.10;5.13;;;;;;;;;;5062234;28;20028;-58
2022/06/18 12:54:17;;;;;;;13.57;5.10;;;;;;;;;;5063037;28;20467;-59
2022/06/18 12:57:17;;;;;;;20.33;5.18;;;;;;;;;;5060939;28;20115;-57
2022/06/18 13:00:04;;;;;;;20.10;5.05;;;;;;;;;;5056712;28;20074;-56
2022/06/18 13:02:41;;;;;;;22.17;4.20;;;;;;;;;;5070786;28;20036;-57
2022/06/18 13:05:15;;;;;;;19.47;4.03;;;;;;;;;;5070108;28;20472;-61
2022/06/18 13:08:05;;;;;;;28.63;4.25;;;;;;;;;;5069897;28;20275;-57
2022/06/18 13:10:48;;;;;;;24.58;3.95;;;;;;;;;;5067492;28;20065;-57
2022/06/18 13:13:26;;;;;;;25.92;5.43;;;;;;;;;;5067984;28;20024;-57
2022/06/18 13:15:59;;;;;;;22.70;4.57;;;;;;;;;;5064923;28;20487;-58
2022/06/18 13:18:46;;;;;;;23.80;3.97;;;;;;;;;;5066881;28;20551;-57
2022/06/18 13:21:12;;;;;;;20.50;3.83;;;;;;;;;;5064958;28;20020;-59
2022/06/18 13:29:40;;;;;;;30.20;4.35;;;;;;;;;;5069994;28;20118;-57
2022/06/18 13:32:31;;;;;;;24.58;3.65;;;;;;;;;;5056975;28;20048;-58
2022/06/18 13:35:13;;;;;;;19.95;3.50;;;;;;;;;;5061369;28;20094;-57
2022/06/18 13:37:48;;;;;;;32.50;3.83;;;;;;;;;;5073473;28;20024;-57
2022/06/18 13:40:30;;;;;;;24.90;4.78;;;;;;;;;;5072878;28;20278;-57
2022/06/18 13:43:10;;;;;;;20.58;3.38;;;;;;;;;;5074777;28;20452;-57
2022/06/18 13:45:50;;;;;;;31.15;4.68;;;;;;;;;;5070828;28;20021;-57
2022/06/18 13:48:34;;;;;;;24.50;4.45;;;;;;;;;;5065766;28;20377;-58
2022/06/18 13:51:00;;;;;;;34.33;4.40;;;;;;;;;;5060768;28;20029;-57
2022/06/18 13:53:31;;;;;;;33.63;4.05;;;;;;;;;;5064150;28;20031;-59
2022/06/18 13:55:57;;;;;;;32.40;5.15;;;;;;;;;;5064743;28;20391;-58
2022/06/18 13:58:38;;;;;;;21.77;4.15;;;;;;;;;;5065925;28;20116;-57
2022/06/18 14:01:14;;;;;;;21.88;4.50;;;;;;;;;;5072458;28;20090;-57
2022/06/18 14:03:43;;;;;;;24.23;4.40;;;;;;;;;;5069595;28;20028;-58
2022/06/18 14:06:10;;;;;;;29.85;4.85;;;;;;;;;;5072581;28;20107;-57
2022/06/18 14:08:46;;;;;;;18.70;4.25;;;;;;;;;;5072336;28;20024;-58
2022/06/18 14:11:13;;;;;;;18.75;4.30;;;;;;;;;;5071401;28;20135;-57
2022/06/18 14:13:48;;;;;;;20.85;4.03;;;;;;;;;;5072433;28;20036;-58
2022/06/18 14:16:27;;;;;;;22.98;4.20;;;;;;;;;;5072377;28;20042;-58
2022/06/18 14:19:05;;;;;;;24.27;4.25;;;;;;;;;;5071289;28;20046;-57
2022/06/18 14:21:34;;;;;;;18.23;3.53;;;;;;;;;;5075828;28;20028;-58
2022/06/18 14:23:59;;;;;;;21.85;4.85;;;;;;;;;;5072949;28;20036;-58
2022/06/18 14:26:24;;;;;;;22.35;4.82;;;;;;;;;;5069447;28;20395;-58
2022/06/18 14:28:50;;;;;;;25.52;3.88;;;;;;;;;;5071818;28;20193;-58
2022/06/18 14:31:27;;;;;;;21.75;4.90;;;;;;;;;;5074931;28;20069;-58
2022/06/18 14:34:05;;;;;;;27.77;4.55;;;;;;;;;;5076476;28;20736;-59
2022/06/18 14:36:37;;;;;;;30.30;5.18;;;;;;;;;;5070806;28;20033;-58
2022/06/18 14:39:14;;;;;;;35.00;4.63;;;;;;;;;;5059183;28;20512;-59
2022/06/18 14:41:41;;;;;;;29.52;4.43;;;;;;;;;;5069558;28;20027;-59
2022/06/18 14:44:53;;;;;;;28.53;4.73;;;;;;;;;;5060653;28;20024;-58
2022/06/18 14:47:36;;;;;;;26.70;4.35;;;;;;;;;;5059613;28;20059;-59
2022/06/18 14:50:17;;;;;;;29.27;4.72;;;;;;;;;;5060689;28;20119;-60
2022/06/18 14:53:10;;;;;;;30.40;4.50;;;;;;;;;;5065473;28;20035;-60
2022/06/18 14:55:56;;;;;;;24.92;3.67;;;;;;;;;;5067726;28;20124;-59
2022/06/18 14:58:43;;;;;;;30.77;5.18;;;;;;;;;;5060460;28;20031;-58
2022/06/18 15:01:08;;;;;;;30.60;5.33;;;;;;;;;;5071672;28;20048;-58
2022/06/18 15:03:55;;;;;;;26.40;4.57;;;;;;;;;;5069083;28;20530;-58
2022/06/18 15:06:20;;;;;;;29.58;4.35;;;;;;;;;;5071154;28;20501;-59
2022/06/18 15:08:53;;;;;;;27.10;4.20;;;;;;;;;;5072509;28;20111;-58
2022/06/18 15:11:19;;;;;;;34.22;4.90;;;;;;;;;;5066701;28;20040;-58
2022/06/18 15:13:44;;;;;;;25.70;4.07;;;;;;;;;;5072757;28;20593;-58
2022/06/18 15:19:14;;;;;;;27.77;4.82;;;;;;;;;;5072718;28;20690;-58
2022/06/18 15:27:08;;;;;;;34.95;4.35;;;;;;;;;;5013415;28;20034;-58
2022/06/18 15:29:42;;;;;;;40.38;4.55;;;;;;;;;;5062767;28;20507;-58
2022/06/18 15:32:15;;;;;;;24.77;3.97;;;;;;;;;;5061514;28;20042;-59
2022/06/18 15:34:41;;;;;;;26.13;4.18;;;;;;;;;;5071238;28;20340;-59
2022/06/18 15:37:13;;;;;;;26.10;4.63;;;;;;;;;;5070555;28;20434;-58